createdAt,value
2019-06-08T00:00:24.018Z,5.13
2019-06-08T00:02:53.476Z,5.33
2019-06-08T00:05:23.168Z,5.70
2019-06-08T00:07:52.770Z,5.63
2019-06-08T00:10:25.511Z,5.80
2019-06-08T00:12:53.575Z,5.80
2019-06-08T00:15:24.333Z,5.57
2019-06-08T00:17:54.266Z,5.53
2019-06-08T00:20:23.807Z,5.37
2019-06-08T00:22:53.210Z,5.17
2019-06-08T00:25:22.680Z,5.07
2019-06-08T00:27:52.143Z,5.33
2019-06-08T00:30:21.817Z,5.53
2019-06-08T00:32:51.263Z,5.40
2019-06-08T00:35:21.134Z,5.47
2019-06-08T00:37:50.639Z,5.30
2019-06-08T00:40:21.089Z,5.53
2019-06-08T00:42:51.154Z,5.30
2019-06-08T00:45:21.699Z,5.70
2019-06-08T00:47:51.255Z,5.13
2019-06-08T00:50:22.938Z,5.80
2019-06-08T00:52:52.448Z,5.70
2019-06-08T00:55:23.657Z,5.77
2019-06-08T00:57:53.525Z,5.90
2019-06-08T01:00:24.501Z,5.50
2019-06-08T01:02:54.503Z,6.07
2019-06-08T01:05:24.065Z,5.63
2019-06-08T01:07:53.547Z,5.53
2019-06-08T01:10:23.486Z,5.30
2019-06-08T01:12:52.886Z,6.10
2019-06-08T01:15:29.320Z,5.83
2019-06-08T01:18:02.602Z,5.97
2019-06-08T01:20:25.736Z,5.57
2019-06-08T01:22:55.172Z,5.80
2019-06-08T01:25:25.718Z,5.63
2019-06-08T01:27:55.628Z,5.70
2019-06-08T01:30:28.419Z,5.60
2019-06-08T01:32:58.286Z,6.20
2019-06-08T01:35:28.782Z,5.70
2019-06-08T01:37:58.376Z,6.27
2019-06-08T01:40:27.850Z,5.80
2019-06-08T01:42:57.315Z,5.93
2019-06-08T01:45:33.341Z,5.80
2019-06-08T01:48:18.853Z,5.80
2019-06-08T01:50:35.528Z,6.27
2019-06-08T01:53:06.652Z,5.80
2019-06-08T01:55:36.692Z,5.50
2019-06-08T01:58:06.137Z,5.60
2019-06-08T02:00:40.738Z,5.87
2019-06-08T02:03:06.991Z,5.57
2019-06-08T02:05:37.555Z,5.53
2019-06-08T02:08:07.057Z,5.57
2019-06-08T02:10:37.357Z,5.90
2019-06-08T02:13:08.823Z,5.80
2019-06-08T02:15:37.926Z,5.57
2019-06-08T02:18:07.416Z,6.03
2019-06-08T02:20:37.309Z,6.00
2019-06-08T02:23:06.858Z,6.20
2019-06-08T02:25:37.002Z,5.90
2019-06-08T02:28:06.535Z,5.73
2019-06-08T02:30:38.598Z,6.47
2019-06-08T02:33:07.157Z,6.30
2019-06-08T02:35:37.851Z,6.43
2019-06-08T02:38:07.472Z,6.30
2019-06-08T02:40:37.266Z,6.03
2019-06-08T02:43:06.838Z,5.87
2019-06-08T02:45:37.055Z,6.13
2019-06-08T02:48:07.903Z,6.50
2019-06-08T02:50:56.927Z,6.13
2019-06-08T02:53:29.082Z,5.43
2019-06-08T02:55:58.731Z,6.40
2019-06-08T02:58:29.253Z,6.80
2019-06-08T03:00:59.363Z,7.10
2019-06-08T03:03:31.718Z,7.53
2019-06-08T03:06:04.000Z,5.97
2019-06-08T03:08:39.205Z,6.27
2019-06-08T03:11:09.169Z,7.00
2019-06-08T03:13:42.391Z,6.50
2019-06-08T03:16:11.704Z,7.43
2019-06-08T03:18:42.532Z,6.60
2019-06-08T03:21:12.217Z,6.83
2019-06-08T03:23:43.475Z,6.97
2019-06-08T03:26:12.827Z,6.47
2019-06-08T03:28:44.349Z,6.57
2019-06-08T03:31:14.265Z,6.97
2019-06-08T03:33:53.144Z,6.60
2019-06-08T03:36:15.151Z,6.47
2019-06-08T03:38:44.977Z,6.43
2019-06-08T03:41:14.429Z,6.10
2019-06-08T03:43:43.949Z,6.50
2019-06-08T03:46:13.805Z,6.33
2019-06-08T03:48:45.772Z,6.13
2019-06-08T03:51:14.773Z,6.67
2019-06-08T03:53:46.382Z,7.47
2019-06-08T03:56:15.357Z,6.47
2019-06-08T03:58:47.559Z,6.47
2019-06-08T04:01:15.942Z,6.90
2019-06-08T04:03:46.367Z,6.60
2019-06-08T04:06:16.401Z,6.77
2019-06-08T04:08:47.471Z,6.77
2019-06-08T04:11:17.555Z,6.40
2019-06-08T04:13:47.397Z,6.27
2019-06-08T04:16:16.896Z,6.07
2019-06-08T04:18:46.769Z,6.20
2019-06-08T04:21:17.016Z,5.73
2019-06-08T04:23:47.259Z,6.37
2019-06-08T04:26:16.833Z,6.37
2019-06-08T04:28:47.352Z,6.67
2019-06-08T04:31:17.402Z,6.90
2019-06-08T04:33:47.214Z,6.83
2019-06-08T04:36:17.062Z,6.60
2019-06-08T04:38:47.846Z,6.10
2019-06-08T04:41:38.380Z,6.43
2019-06-08T04:44:07.806Z,7.40
2019-06-08T04:46:38.224Z,5.93
2019-06-08T04:49:07.697Z,6.20
2019-06-08T04:51:38.829Z,6.63
2019-06-08T04:54:08.594Z,6.40
2019-06-08T04:56:38.558Z,6.93
2019-06-08T04:59:08.409Z,6.40
2019-06-08T05:01:38.840Z,10.70
2019-06-08T05:04:08.395Z,6.73
2019-06-08T05:06:39.056Z,7.33
2019-06-08T05:09:09.030Z,6.00
2019-06-08T05:11:39.112Z,6.77
2019-06-08T05:14:08.734Z,6.63
2019-06-08T05:16:39.129Z,6.57
2019-06-08T05:19:09.345Z,7.13
2019-06-08T05:21:39.530Z,7.60
2019-06-08T05:24:09.157Z,6.87
2019-06-08T05:26:39.264Z,6.87
2019-06-08T05:29:09.090Z,6.83
2019-06-08T05:31:39.364Z,6.77
2019-06-08T05:34:08.960Z,6.63
2019-06-08T05:36:39.351Z,6.20
2019-06-08T05:39:09.263Z,7.00
2019-06-08T05:41:39.413Z,6.67
2019-06-08T05:44:09.317Z,6.60
2019-06-08T05:46:39.573Z,6.83
2019-06-08T05:49:09.169Z,6.00
2019-06-08T05:51:39.779Z,5.83
2019-06-08T05:54:09.282Z,5.83
2019-06-08T05:56:40.258Z,5.80
2019-06-08T05:59:09.697Z,6.13
2019-06-08T06:01:40.397Z,5.63
2019-06-08T06:04:09.957Z,5.83
2019-06-08T06:06:40.429Z,5.43
2019-06-08T06:09:09.918Z,5.30
2019-06-08T06:11:40.665Z,6.67
2019-06-08T06:14:10.174Z,7.00
2019-06-08T06:16:40.815Z,6.33
2019-06-08T06:19:10.421Z,6.27
2019-06-08T06:21:40.902Z,6.33
2019-06-08T06:24:10.538Z,6.73
2019-06-08T06:26:41.195Z,5.87
2019-06-08T06:29:10.678Z,6.50
2019-06-08T06:31:41.574Z,6.13
2019-06-08T06:34:11.355Z,5.97
2019-06-08T06:36:41.715Z,6.87
2019-06-08T06:39:11.187Z,6.17
2019-06-08T06:41:41.843Z,7.10
2019-06-08T06:44:11.722Z,6.53
2019-06-08T06:46:41.889Z,6.37
2019-06-08T06:49:11.269Z,7.07
2019-06-08T06:51:40.697Z,6.67
2019-06-08T06:54:10.274Z,6.57
2019-06-08T06:56:39.995Z,6.20
2019-06-08T06:59:09.531Z,7.10
2019-06-08T07:01:39.345Z,6.83
2019-06-08T07:04:08.804Z,6.50
2019-06-08T07:06:38.366Z,6.50
2019-06-08T07:09:08.011Z,6.50
2019-06-08T07:11:37.984Z,6.63
2019-06-08T07:14:07.731Z,6.90
2019-06-08T07:16:37.362Z,6.87
2019-06-08T07:19:07.142Z,6.07
2019-06-08T07:21:41.840Z,5.33
2019-06-08T07:24:07.694Z,5.90
2019-06-08T07:26:37.581Z,6.00
2019-06-08T07:29:07.425Z,6.13
2019-06-08T07:31:36.880Z,6.50
2019-06-08T07:34:06.293Z,5.63
2019-06-08T07:38:51.387Z,6.30
2019-06-08T07:41:20.944Z,5.70
2019-06-08T07:43:52.296Z,6.00
2019-06-08T07:46:22.059Z,5.73
2019-06-08T07:48:52.304Z,5.87
2019-06-08T07:51:21.924Z,6.10
2019-06-08T07:53:51.564Z,5.67
2019-06-08T07:56:21.079Z,5.57
2019-06-08T07:58:51.565Z,6.20
2019-06-08T08:01:35.256Z,6.23
2019-06-08T08:03:54.136Z,5.37
2019-06-08T08:06:23.767Z,6.00
2019-06-08T08:08:56.907Z,5.90
2019-06-08T08:11:26.546Z,6.50
2019-06-08T08:13:57.314Z,6.80
2019-06-08T08:16:27.007Z,5.93
2019-06-08T08:18:57.606Z,5.70
2019-06-08T08:21:29.481Z,5.63
2019-06-08T08:24:01.375Z,6.53
2019-06-08T08:26:31.243Z,5.60
2019-06-08T08:29:03.051Z,6.20
2019-06-08T08:31:32.436Z,6.53
2019-06-08T08:34:05.500Z,6.03
2019-06-08T08:36:33.481Z,5.87
2019-06-08T08:39:02.969Z,5.90
2019-06-08T08:41:32.405Z,6.13
2019-06-08T08:44:04.267Z,5.93
2019-06-08T08:46:33.057Z,6.73
2019-06-08T08:49:09.495Z,5.80
2019-06-08T08:51:33.990Z,5.77
2019-06-08T08:54:05.450Z,6.60
2019-06-08T08:56:34.974Z,6.00
2019-06-08T08:59:04.529Z,5.90
2019-06-08T09:01:33.973Z,5.93
2019-06-08T09:04:05.103Z,5.47
2019-06-08T09:06:34.498Z,6.10
2019-06-08T09:09:08.652Z,6.33
2019-06-08T09:11:40.844Z,5.70
2019-06-08T09:14:13.732Z,5.23
2019-06-08T09:16:40.465Z,5.27
2019-06-08T09:19:09.935Z,5.80
2019-06-08T09:21:39.862Z,5.67
2019-06-08T09:24:10.674Z,5.60
2019-06-08T09:26:40.141Z,5.50
2019-06-08T09:29:11.305Z,6.00
2019-06-08T09:31:40.874Z,5.80
2019-06-08T09:34:15.288Z,6.10
2019-06-08T09:36:42.153Z,5.30
2019-06-08T09:39:13.086Z,6.57
2019-06-08T09:41:42.736Z,6.10
2019-06-08T09:44:12.361Z,5.97
2019-06-08T09:46:42.192Z,5.53
2019-06-08T09:49:14.254Z,6.10
2019-06-08T09:51:43.722Z,6.37
2019-06-08T09:54:13.336Z,5.97
2019-06-08T09:56:42.870Z,6.03
2019-06-08T09:59:15.185Z,5.53
2019-06-08T10:01:43.497Z,5.93
2019-06-08T10:04:13.827Z,5.60
2019-06-08T10:06:43.377Z,5.63
2019-06-08T10:09:13.501Z,5.83
2019-06-08T10:11:43.008Z,5.90
2019-06-08T10:14:12.966Z,6.13
2019-06-08T10:16:43.397Z,6.07
2019-06-08T10:19:12.843Z,5.87
2019-06-08T10:21:43.780Z,5.80
2019-06-08T10:24:13.137Z,5.90
2019-06-08T10:26:42.895Z,5.57
2019-06-08T10:29:12.383Z,6.40
2019-06-08T10:31:43.836Z,5.90
2019-06-08T10:34:13.599Z,5.70
2019-06-08T10:36:43.543Z,5.90
2019-06-08T10:39:13.653Z,5.43
2019-06-08T10:41:43.151Z,6.03
2019-06-08T10:44:14.434Z,5.57
2019-06-08T10:46:44.518Z,6.10
2019-06-08T10:49:14.987Z,5.97
2019-06-08T10:51:45.437Z,5.10
2019-06-08T10:54:17.311Z,6.20
2019-06-08T10:56:48.546Z,6.17
2019-06-08T10:59:18.706Z,5.77
2019-06-08T11:01:48.671Z,5.40
2019-06-08T11:04:18.590Z,5.60
2019-06-08T11:06:48.207Z,5.77
2019-06-08T11:09:18.923Z,5.60
2019-06-08T11:11:48.547Z,5.87
2019-06-08T11:14:19.551Z,6.03
2019-06-08T11:16:49.245Z,5.67
2019-06-08T11:19:18.915Z,5.80
2019-06-08T11:21:48.821Z,5.50
2019-06-08T11:24:24.937Z,5.60
2019-06-08T11:26:49.526Z,6.10
2019-06-08T11:29:19.024Z,6.37
2019-06-08T11:31:50.958Z,5.60
2019-06-08T11:34:21.865Z,5.90
2019-06-08T11:36:51.738Z,5.70
2019-06-08T11:39:21.663Z,6.43
2019-06-08T11:41:51.178Z,5.63
2019-06-08T11:44:20.646Z,5.40
2019-06-08T11:46:50.178Z,6.37
2019-06-08T11:49:20.069Z,6.67
2019-06-08T11:51:49.874Z,6.20
2019-06-08T11:54:32.902Z,6.30
2019-06-08T11:56:53.647Z,5.67
2019-06-08T11:59:24.429Z,6.13
2019-06-08T12:01:54.135Z,5.83
2019-06-08T12:04:24.434Z,5.70
2019-06-08T12:06:53.932Z,5.27
2019-06-08T12:09:23.427Z,5.60
2019-06-08T12:11:52.941Z,6.23
2019-06-08T12:14:22.842Z,5.73
2019-06-08T12:16:52.388Z,6.03
2019-06-08T12:19:21.824Z,5.70
2019-06-08T12:21:51.282Z,5.63
2019-06-08T12:24:20.793Z,5.90
2019-06-08T12:26:54.811Z,5.83
2019-06-08T12:29:21.725Z,6.20
2019-06-08T12:31:51.182Z,5.57
2019-06-08T12:34:21.113Z,5.60
2019-06-08T12:36:50.552Z,5.93
2019-06-08T12:39:21.492Z,5.73
2019-06-08T12:41:51.033Z,5.87
2019-06-08T12:44:22.242Z,5.90
2019-06-08T12:46:52.220Z,5.67
2019-06-08T12:49:21.657Z,5.90
2019-06-08T12:51:51.904Z,6.07
2019-06-08T12:54:21.510Z,5.43
2019-06-08T12:56:50.989Z,6.77
2019-06-08T12:59:22.555Z,5.33
2019-06-08T13:01:51.633Z,5.10
2019-06-08T13:04:23.499Z,5.00
2019-06-08T13:06:52.266Z,6.07
2019-06-08T13:09:22.075Z,5.33
2019-06-08T13:11:50.894Z,5.57
2019-06-08T13:14:20.785Z,5.80
2019-06-08T13:16:52.941Z,5.50
2019-06-08T13:19:21.749Z,5.50
2019-06-08T13:21:51.583Z,5.33
2019-06-08T13:24:21.770Z,5.37
2019-06-08T13:26:51.218Z,5.57
2019-06-08T13:29:22.205Z,5.20
2019-06-08T13:31:52.013Z,6.07
2019-06-08T13:34:24.028Z,6.10
2019-06-08T13:36:55.085Z,5.73
2019-06-08T13:39:24.612Z,6.00
2019-06-08T13:41:54.182Z,6.03
2019-06-08T13:44:23.695Z,5.53
2019-06-08T13:46:53.443Z,6.00
2019-06-08T13:49:26.817Z,5.47
2019-06-08T13:51:54.384Z,6.27
2019-06-08T13:54:24.327Z,5.73
2019-06-08T13:56:54.135Z,5.80
2019-06-08T13:59:27.688Z,5.43
2019-06-08T14:01:55.035Z,5.63
2019-06-08T14:04:25.321Z,5.60
2019-06-08T14:06:54.743Z,5.63
2019-06-08T14:09:24.950Z,5.50
2019-06-08T14:11:54.508Z,5.67
2019-06-08T14:14:24.687Z,5.40
2019-06-08T14:16:58.439Z,5.60
2019-06-08T14:19:29.038Z,5.70
2019-06-08T14:21:57.928Z,5.97
2019-06-08T14:24:32.836Z,6.30
2019-06-08T14:26:58.930Z,5.50
2019-06-08T14:29:29.286Z,5.67
2019-06-08T14:31:59.528Z,6.00
2019-06-08T14:34:29.839Z,5.73
2019-06-08T14:37:00.145Z,6.07
2019-06-08T14:39:31.724Z,5.77
2019-06-08T14:42:00.771Z,5.47
2019-06-08T14:44:32.245Z,5.50
2019-06-08T14:47:14.259Z,5.70
2019-06-08T14:49:48.767Z,5.13
2019-06-08T14:52:20.603Z,6.17
2019-06-08T14:54:51.231Z,7.20
2019-06-08T14:57:21.304Z,8.97
2019-06-08T14:59:50.824Z,16.47
2019-06-08T15:02:21.221Z,22.10
2019-06-08T15:04:51.181Z,19.63
2019-06-08T15:07:23.225Z,21.70
2019-06-08T15:09:51.713Z,18.53
2019-06-08T15:12:21.480Z,11.53
2019-06-08T15:14:50.965Z,7.53
2019-06-08T15:17:21.698Z,6.20
2019-06-08T15:19:51.656Z,6.30
2019-06-08T15:22:22.294Z,7.20
2019-06-08T15:24:52.186Z,7.23
2019-06-08T15:27:24.421Z,6.20
2019-06-08T15:29:52.806Z,6.37
2019-06-08T15:32:22.936Z,6.67
2019-06-08T15:34:53.038Z,7.17
2019-06-08T15:37:23.181Z,6.23
2019-06-08T15:39:52.770Z,6.00
2019-06-08T15:42:22.293Z,6.17
2019-06-08T15:44:51.789Z,6.63
2019-06-08T15:47:22.157Z,6.20
2019-06-08T15:49:52.384Z,6.10
2019-06-08T15:52:22.418Z,6.27
2019-06-08T15:54:52.271Z,6.90
2019-06-08T15:57:28.070Z,6.80
2019-06-08T15:59:58.557Z,6.40
2019-06-08T16:02:29.365Z,5.97
2019-06-08T16:04:58.968Z,6.07
2019-06-08T16:07:32.168Z,5.97
2019-06-08T16:09:59.712Z,5.40
2019-06-08T16:12:30.555Z,6.20
2019-06-08T16:15:00.185Z,6.13
2019-06-08T16:17:29.694Z,5.40
2019-06-08T16:19:59.161Z,5.57
2019-06-08T16:22:29.577Z,6.13
2019-06-08T16:24:59.495Z,6.77
2019-06-08T16:27:29.722Z,5.53
2019-06-08T16:29:59.373Z,5.70
2019-06-08T16:32:29.267Z,6.20
2019-06-08T16:34:58.846Z,5.20
2019-06-08T16:37:29.469Z,5.47
2019-06-08T16:39:59.013Z,5.33
2019-06-08T16:42:28.610Z,5.87
2019-06-08T16:44:58.417Z,5.73
2019-06-08T16:47:28.974Z,6.07
2019-06-08T16:49:58.842Z,6.13
2019-06-08T16:52:30.320Z,5.33
2019-06-08T16:54:59.841Z,5.40
2019-06-08T16:57:29.437Z,5.73
2019-06-08T16:59:59.066Z,5.40
2019-06-08T17:02:28.707Z,5.37
2019-06-08T17:04:58.185Z,5.50
2019-06-08T17:07:29.261Z,5.90
2019-06-08T17:09:59.182Z,6.40
2019-06-08T17:12:28.641Z,6.20
2019-06-08T17:14:58.569Z,6.93
2019-06-08T17:17:28.402Z,6.10
2019-06-08T17:19:58.235Z,6.30
2019-06-08T17:22:27.765Z,7.87
2019-06-08T17:24:57.516Z,6.40
2019-06-08T17:27:27.841Z,6.53
2019-06-08T17:29:57.310Z,7.97
2019-06-08T17:32:27.075Z,9.40
2019-06-08T17:34:56.670Z,8.00
2019-06-08T17:37:26.199Z,8.37
2019-06-08T17:39:55.836Z,7.90
2019-06-08T17:42:25.318Z,9.53
2019-06-08T17:44:55.210Z,8.80
2019-06-08T17:47:25.090Z,8.63
2019-06-08T17:49:54.555Z,7.83
2019-06-08T17:52:24.026Z,7.10
2019-06-08T17:54:53.619Z,8.43
2019-06-08T17:57:23.182Z,8.37
2019-06-08T17:59:52.619Z,7.23
2019-06-08T18:02:27.975Z,7.10
2019-06-08T18:04:53.227Z,7.10
2019-06-08T18:07:22.822Z,7.10
2019-06-08T18:09:52.382Z,7.80
2019-06-08T18:12:22.485Z,8.87
2019-06-08T18:14:52.225Z,8.13
2019-06-08T18:17:21.712Z,7.43
2019-06-08T18:19:51.456Z,7.10
2019-06-08T18:22:20.865Z,7.23
2019-06-08T18:24:50.296Z,6.90
2019-06-08T18:27:19.713Z,7.30
2019-06-08T18:29:49.321Z,6.67
2019-06-08T18:32:19.469Z,5.97
2019-06-08T18:34:48.917Z,6.70
2019-06-08T18:37:19.110Z,5.73
2019-06-08T18:39:49.432Z,6.47
2019-06-08T18:42:20.179Z,6.43
2019-06-08T18:44:49.789Z,6.50
2019-06-08T18:47:19.475Z,5.80
2019-06-08T18:49:48.994Z,6.37
2019-06-08T18:52:18.469Z,6.10
2019-06-08T18:54:49.463Z,6.67
2019-06-08T18:57:19.326Z,6.83
2019-06-08T18:59:53.033Z,6.60
2019-06-08T19:02:20.314Z,6.50
2019-06-08T19:04:49.877Z,6.40
2019-06-08T19:07:19.397Z,6.40
2019-06-08T19:09:49.862Z,5.90
2019-06-08T19:12:19.821Z,6.27
2019-06-08T19:14:52.178Z,5.83
2019-06-08T19:17:21.107Z,6.37
2019-06-08T19:19:52.428Z,6.67
2019-06-08T19:22:24.032Z,6.00
2019-06-08T19:24:53.611Z,5.83
2019-06-08T19:27:23.114Z,6.40
2019-06-08T19:29:52.622Z,6.50
2019-06-08T19:32:22.114Z,6.50
2019-06-08T19:34:54.409Z,5.73
2019-06-08T19:37:23.143Z,5.97
2019-06-08T19:39:52.731Z,6.43
2019-06-08T19:42:35.749Z,6.40
2019-06-08T19:45:00.936Z,6.90
2019-06-08T19:47:27.074Z,5.73
2019-06-08T19:49:57.812Z,6.30
2019-06-08T19:52:27.292Z,5.70
2019-06-08T19:54:58.102Z,6.43
2019-06-08T19:57:28.482Z,6.50
2019-06-08T20:00:00.366Z,5.93
2019-06-08T20:02:29.712Z,6.30
2019-06-08T20:04:59.169Z,5.70
2019-06-08T20:07:29.128Z,6.07
2019-06-08T20:09:58.960Z,6.13
2019-06-08T20:12:28.689Z,6.53
2019-06-08T20:14:58.170Z,6.50
2019-06-08T20:17:28.557Z,6.63
2019-06-08T20:19:58.499Z,6.83
2019-06-08T20:22:28.046Z,6.50
2019-06-08T20:24:57.572Z,6.20
2019-06-08T20:27:27.693Z,7.10
2019-06-08T20:29:58.228Z,7.30
2019-06-08T20:32:28.313Z,7.53
2019-06-08T20:34:57.910Z,7.63
2019-06-08T20:37:28.265Z,7.33
2019-06-08T20:40:09.654Z,7.13
2019-06-08T20:42:29.411Z,7.63
2019-06-08T20:44:58.844Z,7.00
2019-06-08T20:47:29.243Z,7.80
2019-06-08T20:49:58.998Z,7.63
2019-06-08T20:52:28.597Z,6.97
2019-06-08T20:54:58.301Z,6.87
2019-06-08T20:57:28.203Z,7.73
2019-06-08T20:59:58.131Z,7.30
2019-06-08T21:02:28.465Z,7.27
2019-06-08T21:04:59.517Z,7.50
2019-06-08T21:07:29.426Z,6.80
2019-06-08T21:09:58.950Z,6.73
2019-06-08T21:12:28.493Z,6.37
2019-06-08T21:14:58.457Z,7.60
2019-06-08T21:17:27.958Z,6.93
2019-06-08T21:19:57.934Z,7.23
2019-06-08T21:22:28.321Z,7.27
2019-06-08T21:25:00.002Z,7.47
2019-06-08T21:27:28.945Z,7.57
2019-06-08T21:30:06.652Z,7.13
2019-06-08T21:32:29.746Z,7.50
2019-06-08T21:35:00.255Z,7.13
2019-06-08T21:37:30.289Z,7.00
2019-06-08T21:40:03.810Z,7.00
2019-06-08T21:42:30.827Z,7.43
2019-06-08T21:45:02.164Z,7.20
2019-06-08T21:47:31.693Z,7.37
2019-06-08T21:50:01.637Z,7.17
2019-06-08T21:52:31.210Z,7.30
2019-06-08T21:55:00.689Z,7.03
2019-06-08T21:57:30.131Z,7.17
2019-06-08T22:00:21.891Z,7.40
2019-06-08T22:02:30.794Z,7.43
2019-06-08T22:05:02.934Z,7.13
2019-06-08T22:07:31.386Z,6.93
2019-06-08T22:10:00.839Z,6.83
2019-06-08T22:12:30.433Z,7.30
2019-06-08T22:15:00.981Z,6.93
2019-06-08T22:17:30.980Z,7.63
2019-06-08T22:20:01.064Z,8.30
2019-06-08T22:22:30.765Z,7.47
2019-06-08T22:25:01.109Z,8.13
2019-06-08T22:27:30.733Z,7.40
2019-06-08T22:30:02.616Z,7.33
2019-06-08T22:32:31.776Z,7.40
2019-06-08T22:35:01.817Z,6.50
2019-06-08T22:37:31.923Z,7.40
2019-06-08T22:40:01.685Z,7.07
2019-06-08T22:42:31.185Z,7.20
2019-06-08T22:45:02.209Z,6.83
2019-06-08T22:47:31.772Z,7.13
2019-06-08T22:50:02.559Z,7.13
2019-06-08T22:52:33.138Z,7.23
2019-06-08T22:55:06.936Z,7.00
2019-06-08T22:57:33.708Z,7.30
2019-06-08T23:00:13.339Z,7.00
2019-06-08T23:02:34.208Z,7.37
2019-06-08T23:05:05.502Z,6.63
2019-06-08T23:07:37.234Z,6.60
2019-06-08T23:10:08.993Z,6.90
2019-06-08T23:12:38.464Z,6.93
2019-06-08T23:15:08.258Z,7.93
2019-06-08T23:17:38.700Z,7.37
2019-06-08T23:20:09.262Z,6.80
2019-06-08T23:22:38.819Z,7.00
2019-06-08T23:25:09.599Z,8.17
2019-06-08T23:27:39.217Z,7.80
2019-06-08T23:30:10.475Z,7.73
2019-06-08T23:32:40.412Z,7.83
2019-06-08T23:35:10.457Z,8.53
2019-06-08T23:37:40.349Z,6.97
2019-06-08T23:40:09.959Z,8.33
2019-06-08T23:42:39.425Z,10.63
2019-06-08T23:45:10.761Z,8.97
2019-06-08T23:47:41.010Z,9.03
2019-06-08T23:50:11.694Z,8.90
2019-06-08T23:52:41.294Z,8.60
2019-06-08T23:55:12.049Z,8.33
2019-06-08T23:57:41.972Z,9.20
